Time;durP1;ratioP1;P1;durP2;ratioP2;P2;SDS_P1;SDS_P2;PMS_P1;PMS_P2;Temp;Humidity;BMP_temperature;BMP_pressure;BME280_temperature;BME280_humidity;BME280_pressure;Samples;Min_cycle;Max_cycle;Signal;HPM_P1;HPM_P2
2022/07/05 00:02:31;;;;;;;5.17;3.90;;;16.60;94.00;;;;;;2613902;39;20608;-73
2022/07/05 00:08:19;;;;;;;5.70;4.23;;;16.20;96.90;;;;;;2614365;54;20240;-73
2022/07/05 00:14:06;;;;;;;4.70;4.03;;;16.30;98.40;;;;;;2615374;31;20679;-73
2022/07/05 00:19:53;;;;;;;7.50;4.10;;;16.30;99.90;;;;;;2614886;54;20128;-73
2022/07/05 00:25:41;;;;;;;4.50;4.10;;;16.20;99.90;;;;;;2615172;54;20320;-72
2022/07/05 00:31:29;;;;;;;4.50;4.10;;;16.00;99.90;;;;;;2615039;54;20137;-73
2022/07/05 00:37:36;;;;;;;4.23;3.83;;;15.90;99.90;;;;;;2613001;54;20160;-74
2022/07/05 00:43:25;;;;;;;5.20;4.20;;;15.70;99.90;;;;;;2613851;54;20241;-73
2022/07/05 00:49:12;;;;;;;4.33;4.03;;;15.60;99.90;;;;;;2613556;54;20436;-73
2022/07/05 00:54:59;;;;;;;4.63;3.83;;;15.50;99.90;;;;;;2613971;54;21164;-74
2022/07/05 01:00:46;;;;;;;4.93;4.43;;;15.40;99.90;;;;;;2613956;54;20418;-74
2022/07/05 01:06:33;;;;;;;4.73;4.17;;;15.60;99.90;;;;;;2613829;54;20176;-73
2022/07/05 01:12:22;;;;;;;4.20;3.90;;;15.70;99.90;;;;;;2613857;54;20243;-74
2022/07/05 01:18:10;;;;;;;7.80;4.73;;;16.00;99.90;;;;;;2614204;54;20394;-75
2022/07/05 01:23:58;;;;;;;5.60;5.10;;;15.90;99.90;;;;;;2615178;54;20407;-74
2022/07/05 01:29:46;;;;;;;4.30;4.00;;;15.80;99.90;;;;;;2615157;54;20123;-75
2022/07/05 01:35:34;;;;;;;5.57;4.20;;;15.80;99.90;;;;;;2615134;54;20187;-75
2022/07/05 01:41:22;;;;;;;5.07;3.97;;;16.10;99.90;;;;;;2615162;47;20417;-75
2022/07/05 01:47:10;;;;;;;4.77;4.27;;;16.10;99.90;;;;;;2614806;54;20136;-74
2022/07/05 01:53:00;;;;;;;5.53;3.70;;;16.40;99.90;;;;;;2614973;54;20417;-76
2022/07/05 01:58:49;;;;;;;4.90;4.40;;;16.40;99.90;;;;;;2614854;47;20546;-74
2022/07/05 02:04:38;;;;;;;4.97;4.57;;;16.60;99.90;;;;;;2614785;54;20537;-74
2022/07/05 02:10:25;;;;;;;5.03;4.60;;;16.40;99.90;;;;;;2614352;54;20404;-74
2022/07/05 02:16:13;;;;;;;4.80;4.40;;;15.80;99.90;;;;;;2614766;54;20681;-75
2022/07/05 02:22:01;;;;;;;5.37;4.13;;;16.00;99.90;;;;;;2614577;54;20135;-75
2022/07/05 02:27:49;;;;;;;6.27;4.73;;;15.70;99.90;;;;;;2614409;54;20122;-74
2022/07/05 02:33:38;;;;;;;5.33;4.33;;;15.30;99.90;;;;;;2615017;54;20387;-74
2022/07/05 02:39:28;;;;;;;6.80;4.77;;;15.50;99.90;;;;;;2615343;54;20531;-75
2022/07/05 02:45:16;;;;;;;4.70;4.00;;;15.40;99.90;;;;;;2615705;54;20482;-76
2022/07/05 02:51:05;;;;;;;6.17;4.67;;;15.40;99.90;;;;;;2616240;39;20641;-74
2022/07/05 02:56:52;;;;;;;4.70;4.30;;;15.40;99.90;;;;;;2615701;54;20454;-74
2022/07/05 03:02:40;;;;;;;5.93;5.10;;;15.50;99.90;;;;;;2615247;54;21014;-75
2022/07/05 03:08:28;;;;;;;8.10;4.40;;;15.50;99.90;;;;;;2615637;54;20626;-74
2022/07/05 03:14:15;;;;;;;4.70;4.30;;;15.90;99.90;;;;;;2615377;54;20308;-74
2022/07/05 03:20:04;;;;;;;5.90;4.80;;;15.80;99.90;;;;;;2615281;54;20123;-75
2022/07/05 03:25:51;;;;;;;4.50;4.07;;;15.90;99.90;;;;;;2614953;54;20380;-74
2022/07/05 03:31:39;;;;;;;8.40;4.67;;;15.80;99.90;;;;;;2615701;54;20136;-75
2022/07/05 03:37:32;;;;;;;8.43;5.20;;;15.60;99.90;;;;;;2614243;46;20172;-74
2022/07/05 03:43:19;;;;;;;13.83;5.90;;;15.30;99.90;;;;;;2614669;54;20127;-74
2022/07/05 03:49:06;;;;;;;6.37;4.80;;;15.30;99.90;;;;;;2614304;54;20128;-74
2022/07/05 03:54:54;;;;;;;5.93;5.10;;;15.30;99.90;;;;;;2613452;54;20142;-75
2022/07/05 04:00:41;;;;;;;6.23;5.17;;;15.40;99.90;;;;;;2613642;54;20152;-74
2022/07/05 04:06:28;;;;;;;7.83;5.57;;;15.50;99.90;;;;;;2613445;39;20596;-74
2022/07/05 04:12:16;;;;;;;7.80;5.90;;;15.40;99.90;;;;;;2614411;54;20136;-75
2022/07/05 04:18:04;;;;;;;6.20;5.60;;;15.40;99.90;;;;;;2615246;54;20174;-74
2022/07/05 04:23:51;;;;;;;5.33;4.80;;;15.50;99.90;;;;;;2615418;54;20396;-76
2022/07/05 04:29:39;;;;;;;5.90;5.40;;;15.80;99.90;;;;;;2615309;54;20136;-74
2022/07/05 04:45:45;;;;;;;5.20;4.70;;;15.60;99.90;;;;;;2613730;54;20509;-74
2022/07/05 04:51:32;;;;;;;6.17;5.23;;;16.00;99.90;;;;;;2613589;54;20683;-74
2022/07/05 04:57:19;;;;;;;5.17;4.77;;;16.90;99.90;;;;;;2614189;54;20146;-74
2022/07/05 05:03:06;;;;;;;8.40;5.33;;;17.80;99.90;;;;;;2613010;54;20174;-74
2022/07/05 05:08:53;;;;;;;7.27;6.40;;;18.20;97.00;;;;;;2612336;54;20242;-77
2022/07/05 05:14:41;;;;;;;7.53;5.80;;;18.70;79.80;;;;;;2613014;54;21265;-75
2022/07/05 05:20:29;;;;;;;6.50;5.87;;;19.70;58.50;;;;;;2615816;31;20619;-75
2022/07/05 05:26:17;;;;;;;6.70;5.20;;;20.40;46.90;;;;;;2614322;54;20399;-75
2022/07/05 05:32:05;;;;;;;5.40;4.90;;;20.60;31.70;;;;;;2614717;54;20277;-75
2022/07/05 05:41:15;;;;;;;5.73;5.10;;;20.90;19.80;;;;;;2616250;39;20797;-75
2022/07/05 05:47:03;;;;;;;6.13;5.60;;;21.40;13.70;;;;;;2615411;54;20142;-74
2022/07/05 05:52:51;;;;;;;4.43;3.97;;;21.70;13.60;;;;;;2613374;54;20438;-76
2022/07/05 05:58:38;;;;;;;4.30;3.90;;;21.70;11.80;;;;;;2614787;54;20131;-75
2022/07/05 06:04:26;;;;;;;4.67;4.27;;;21.60;8.90;;;;;;2614287;54;20131;-74
2022/07/05 06:10:16;;;;;;;5.33;4.93;;;22.80;2.80;;;;;;2613568;54;20119;-74
2022/07/05 06:16:06;;;;;;;5.23;4.83;;;23.10;2.30;;;;;;2614385;46;20399;-75
2022/07/05 06:21:54;;;;;;;5.37;4.83;;;23.10;1.00;;;;;;2614099;54;20410;-76
2022/07/05 06:27:45;;;;;;;7.73;4.20;;;23.40;1.00;;;;;;2613334;54;20173;-76
2022/07/05 06:33:33;;;;;;;4.50;4.10;;;23.20;1.00;;;;;;2613371;54;20407;-76
2022/07/05 06:39:29;;;;;;;4.13;3.77;;;23.80;1.00;;;;;;2611567;54;20131;-75
2022/07/05 06:45:16;;;;;;;7.03;3.90;;;24.60;1.00;;;;;;2610981;54;20155;-74
2022/07/05 06:51:04;;;;;;;5.57;4.30;;;24.50;1.00;;;;;;2612419;54;20166;-74
2022/07/05 06:56:51;;;;;;;6.00;4.63;;;25.10;1.00;;;;;;2611622;54;20128;-74
2022/07/05 07:02:38;;;;;;;6.57;4.50;;;25.30;1.00;;;;;;2612434;54;20126;-76
2022/07/05 07:14:31;;;;;;;4.80;4.33;;;25.40;1.00;;;;;;2611843;47;23288;-76
2022/07/05 07:20:19;;;;;;;5.77;5.37;;;25.60;1.00;;;;;;2613476;54;20768;-76
2022/07/05 07:26:06;;;;;;;5.87;5.13;;;25.30;1.00;;;;;;2613240;54;20123;-75
2022/07/05 07:29:10;;;;;;;5.17;4.63;;;24.50;1.00;;;;;;2614477;54;20412;-74
2022/07/05 07:31:35;;;;;;;4.80;4.40;;;24.80;1.00;;;;;;2615206;54;20155;-75
2022/07/05 07:47:39;;;;;;;5.20;4.80;;;25.80;1.00;;;;;;2630533;36;20450;-75
2022/07/05 07:53:26;;;;;;;7.30;5.20;;;26.00;1.00;;;;;;2613507;54;20414;-75
2022/07/05 07:59:13;;;;;;;6.70;5.40;;;25.60;1.00;;;;;;2612468;54;20142;-74
2022/07/05 08:05:01;;;;;;;5.37;4.87;;;26.30;1.00;;;;;;2613150;54;20664;-75
2022/07/05 08:10:49;;;;;;;6.27;5.77;;;25.80;1.00;;;;;;2614582;46;20394;-75
2022/07/05 08:16:36;;;;;;;5.63;4.87;;;26.60;1.00;;;;;;2613978;54;20169;-75
2022/07/05 08:22:24;;;;;;;7.17;6.10;;;26.00;1.00;;;;;;2614715;54;20266;-76
2022/07/05 08:28:11;;;;;;;7.47;5.43;;;23.90;1.00;;;;;;2614435;46;20260;-76
2022/07/05 08:34:00;;;;;;;5.07;4.60;;;25.10;1.00;;;;;;2614578;54;20130;-75
2022/07/05 08:40:09;;;;;;;6.53;4.70;;;24.70;1.00;;;;;;2613308;54;20383;-75
2022/07/05 08:45:58;;;;;;;7.40;5.43;;;23.90;1.00;;;;;;2613007;54;20473;-75
2022/07/05 08:51:45;;;;;;;6.03;5.43;;;23.10;1.00;;;;;;2612769;54;20407;-74
2022/07/05 08:57:32;;;;;;;6.00;4.23;;;23.00;1.00;;;;;;2612340;54;20399;-75
2022/07/05 09:03:25;;;;;;;5.60;4.07;;;22.60;1.00;;;;;;2613639;54;20134;-74
2022/07/05 09:09:16;;;;;;;6.60;4.37;;;23.90;1.00;;;;;;2613736;54;20399;-74
2022/07/05 09:15:05;;;;;;;7.40;4.80;;;25.60;1.00;;;;;;2614770;54;20391;-74
2022/07/05 09:41:16;;;;;;;6.30;5.37;;;23.60;1.00;;;;;;2614047;54;20403;-75
2022/07/05 09:47:14;;;;;;;5.20;4.70;;;23.00;1.00;;;;;;2611566;54;20445;-76
2022/07/05 09:53:01;;;;;;;5.23;4.60;;;25.10;1.00;;;;;;2613139;54;20398;-76
2022/07/05 09:58:48;;;;;;;5.20;4.70;;;25.90;1.00;;;;;;2613517;54;20130;-76
2022/07/05 10:04:35;;;;;;;5.20;4.77;;;24.20;1.00;;;;;;2613276;54;20993;-76
2022/07/05 10:10:25;;;;;;;4.90;4.50;;;23.40;1.00;;;;;;2613052;54;20614;-76
2022/07/05 10:16:14;;;;;;;6.43;4.40;;;25.60;1.00;;;;;;2613696;46;20427;-75
2022/07/05 10:22:03;;;;;;;4.50;4.10;;;25.00;1.00;;;;;;2613247;39;20818;-75
2022/07/05 10:27:53;;;;;;;5.13;4.83;;;24.90;1.00;;;;;;2613325;31;20884;-75
2022/07/05 10:33:42;;;;;;;5.17;4.77;;;24.10;1.00;;;;;;2614367;54;20770;-74
2022/07/05 10:39:49;;;;;;;7.23;4.50;;;24.30;1.00;;;;;;2613067;54;20526;-74
2022/07/05 10:45:39;;;;;;;5.20;4.80;;;26.40;1.00;;;;;;2612093;54;20166;-76
2022/07/05 10:51:26;;;;;;;5.10;4.00;;;25.90;1.00;;;;;;2612874;54;20394;-75
2022/07/05 11:11:24;;;;;;;4.27;3.93;;;26.70;1.00;;;;;;2613616;47;20402;-75
2022/07/05 11:17:22;;;;;;;4.67;4.37;;;27.00;1.00;;;;;;2613339;54;20409;-77
2022/07/05 11:23:30;;;;;;;5.47;5.17;;;27.30;1.00;;;;;;2614448;39;20788;-76
2022/07/05 11:43:12;;;;;;;5.80;4.90;;;25.50;1.00;;;;;;2612856;54;20558;-75
2022/07/05 11:49:00;;;;;;;5.80;4.70;;;25.50;1.00;;;;;;2612642;54;20257;-75
2022/07/05 11:54:49;;;;;;;7.03;5.03;;;26.60;1.00;;;;;;2611704;54;20504;-76
2022/07/05 12:00:37;;;;;;;5.37;4.87;;;27.20;1.00;;;;;;2613153;39;20850;-75
2022/07/05 12:06:24;;;;;;;5.00;4.57;;;27.70;1.00;;;;;;2612322;54;20395;-78
2022/07/05 12:18:24;;;;;;;4.20;3.90;;;28.30;1.00;;;;;;2614883;54;20421;-74
2022/07/05 12:24:16;;;;;;;4.70;4.40;;;25.90;1.00;;;;;;2613823;54;20130;-75
2022/07/05 12:30:05;;;;;;;4.80;4.50;;;24.60;1.00;;;;;;2614868;54;20355;-75
2022/07/05 12:35:53;;;;;;;5.60;5.20;;;24.60;1.00;;;;;;2614633;54;20422;-75
2022/07/05 12:41:44;;;;;;;5.77;5.33;;;27.00;1.00;;;;;;2612325;54;21349;-76
2022/07/05 12:47:37;;;;;;;4.90;4.50;;;27.80;1.00;;;;;;2613444;54;20422;-75
2022/07/05 12:59:32;;;;;;;4.87;4.67;;;28.60;1.00;;;;;;2614764;54;20920;-76
2022/07/05 13:05:24;;;;;;;8.53;5.57;;;27.40;1.00;;;;;;2613899;54;20269;-75
2022/07/05 13:11:11;;;;;;;5.60;5.17;;;26.50;1.00;;;;;;2614849;54;20469;-76
2022/07/05 13:16:59;;;;;;;4.90;4.57;;;27.60;1.00;;;;;;2612869;54;20139;-76
2022/07/05 13:22:47;;;;;;;5.53;5.13;;;28.40;1.00;;;;;;2614127;54;20173;-74
2022/07/05 13:25:51;;;;;;;5.53;5.03;;;28.30;1.00;;;;;;2614095;54;20423;-75
2022/07/05 13:28:16;;;;;;;7.97;5.00;;;28.20;1.00;;;;;;2614466;54;20429;-76
2022/07/05 13:34:04;;;;;;;6.03;5.50;;;27.40;1.00;;;;;;2614437;54;20127;-74
2022/07/05 13:40:09;;;;;;;5.60;5.10;;;27.20;1.00;;;;;;2612858;54;20156;-75
2022/07/05 13:45:56;;;;;;;5.80;5.40;;;27.00;1.00;;;;;;2612401;46;20487;-75
2022/07/05 13:51:43;;;;;;;7.97;5.67;;;27.10;1.00;;;;;;2612605;54;20277;-76
2022/07/05 13:57:31;;;;;;;6.13;5.00;;;27.70;1.00;;;;;;2612944;54;20156;-76
2022/07/05 14:03:18;;;;;;;5.30;5.00;;;28.10;1.00;;;;;;2612769;54;20393;-75
2022/07/05 14:09:06;;;;;;;5.53;5.13;;;27.60;1.00;;;;;;2611909;54;20129;-74
2022/07/05 14:14:53;;;;;;;6.80;5.60;;;27.60;1.00;;;;;;2614039;46;20190;-76
2022/07/05 14:20:41;;;;;;;5.50;5.10;;;27.30;1.00;;;;;;2614275;39;20548;-76
2022/07/05 14:26:29;;;;;;;7.53;5.90;;;26.80;1.00;;;;;;2612474;54;20414;-76
2022/07/05 14:32:17;;;;;;;6.80;5.70;;;26.70;1.00;;;;;;2612781;39;20789;-75
2022/07/05 14:48:17;;;;;;;6.00;5.40;;;24.90;1.00;;;;;;2613897;54;20438;-76
2022/07/05 14:54:04;;;;;;;5.53;5.10;;;24.60;1.00;;;;;;2613307;54;20242;-76
2022/07/05 14:59:51;;;;;;;5.60;5.20;;;24.20;1.00;;;;;;2614025;39;20593;-76
2022/07/05 15:05:38;;;;;;;5.93;5.50;;;24.40;1.00;;;;;;2613292;54;20125;-75
2022/07/05 15:11:26;;;;;;;6.60;5.90;;;24.30;1.00;;;;;;2613523;46;20151;-75
2022/07/05 15:17:12;;;;;;;6.27;5.50;;;24.30;1.00;;;;;;2613680;54;20158;-76
2022/07/05 15:23:00;;;;;;;189.00;171.80;;;25.70;1.00;;;;;;2614232;39;20554;-75
2022/07/05 15:28:48;;;;;;;140.93;130.77;;;25.10;1.00;;;;;;2615398;54;20127;-76
2022/07/05 15:34:36;;;;;;;12.63;11.57;;;24.30;1.00;;;;;;2614455;54;20262;-77
2022/07/05 15:50:33;;;;;;;7.00;5.97;;;23.20;1.00;;;;;;2614102;54;20392;-75
2022/07/05 15:56:20;;;;;;;5.80;5.20;;;23.00;1.00;;;;;;2612176;54;20205;-75
2022/07/05 16:02:07;;;;;;;7.00;4.77;;;23.00;1.00;;;;;;2612557;54;20196;-75
2022/07/05 16:07:54;;;;;;;8.87;5.97;;;22.80;1.00;;;;;;2613743;54;20235;-74
2022/07/05 16:13:41;;;;;;;6.97;6.30;;;22.80;1.00;;;;;;2614016;54;20602;-75
2022/07/05 16:19:29;;;;;;;10.40;8.60;;;22.70;1.00;;;;;;2613914;54;20157;-75
2022/07/05 16:25:16;;;;;;;9.73;8.00;;;22.60;1.00;;;;;;2614799;54;20371;-75
2022/07/05 16:31:06;;;;;;;5.93;5.50;;;22.40;1.00;;;;;;2614504;54;20142;-75
2022/07/05 16:36:56;;;;;;;4.93;4.53;;;22.90;1.00;;;;;;2614890;46;20417;-76
2022/07/05 16:46:10;;;;;;;5.37;4.97;;;22.70;1.00;;;;;;2615496;54;20408;-76
2022/07/05 16:51:57;;;;;;;6.50;4.10;;;22.40;1.00;;;;;;2615612;54;20419;-75
2022/07/05 16:57:45;;;;;;;6.23;4.23;;;22.30;1.00;;;;;;2615535;54;20125;-75
2022/07/05 17:03:33;;;;;;;4.60;4.20;;;22.30;1.00;;;;;;2615620;46;20226;-75
2022/07/05 17:09:21;;;;;;;4.10;3.80;;;22.50;1.00;;;;;;2615815;54;20139;-74
2022/07/05 17:15:09;;;;;;;4.80;3.70;;;22.30;1.00;;;;;;2614421;54;20235;-75
2022/07/05 17:20:57;;;;;;;3.97;3.67;;;22.00;1.00;;;;;;2614347;54;20973;-75
2022/07/05 17:26:44;;;;;;;5.13;4.13;;;21.80;1.00;;;;;;2613874;54;20162;-74
2022/07/05 17:32:32;;;;;;;4.53;4.13;;;21.50;1.00;;;;;;2615118;54;20178;-74
2022/07/05 17:38:20;;;;;;;4.40;4.00;;;21.50;1.00;;;;;;2614930;54;20126;-75
2022/07/05 17:44:21;;;;;;;6.20;4.20;;;21.60;1.00;;;;;;2613738;54;20392;-75
2022/07/05 17:50:09;;;;;;;5.63;4.00;;;21.60;1.00;;;;;;2613776;46;20150;-75
2022/07/05 17:55:56;;;;;;;3.67;3.47;;;21.40;1.00;;;;;;2613188;54;20138;-76
2022/07/05 18:01:43;;;;;;;5.83;3.40;;;21.30;1.00;;;;;;2610606;54;20140;-77
2022/07/05 18:07:30;;;;;;;4.10;3.70;;;21.30;1.00;;;;;;2611939;54;20151;-75
2022/07/05 18:13:17;;;;;;;6.47;3.63;;;21.20;1.00;;;;;;2612459;54;20226;-76
2022/07/05 18:19:05;;;;;;;4.40;4.00;;;21.40;1.00;;;;;;2611164;54;20206;-75
2022/07/05 18:24:52;;;;;;;8.80;3.60;;;21.20;1.00;;;;;;2612390;54;20168;-75
2022/07/05 18:30:39;;;;;;;4.20;3.80;;;21.10;1.00;;;;;;2612770;47;20250;-76
2022/07/05 18:36:26;;;;;;;4.30;4.00;;;21.10;1.00;;;;;;2612059;54;20210;-75
2022/07/05 18:52:34;;;;;;;4.47;3.43;;;20.70;1.00;;;;;;2613396;54;20394;-75
2022/07/05 18:58:21;;;;;;;5.17;3.70;;;20.50;1.00;;;;;;2611966;54;20386;-75
2022/07/05 19:04:08;;;;;;;9.03;4.20;;;20.40;1.00;;;;;;2609404;54;20134;-76
2022/07/05 19:16:01;;;;;;;5.73;3.37;;;20.30;1.00;;;;;;2609515;54;20427;-76
2022/07/05 19:21:49;;;;;;;3.47;3.20;;;20.20;1.00;;;;;;2611864;54;20289;-77
2022/07/05 19:24:52;;;;;;;3.80;3.40;;;20.00;1.00;;;;;;2611339;54;20423;-75
2022/07/05 19:27:19;;;;;;;3.17;2.97;;;19.90;1.00;;;;;;2613119;54;20161;-77
2022/07/05 19:33:07;;;;;;;4.20;3.80;;;19.80;1.00;;;;;;2613690;54;20391;-75
2022/07/05 19:38:55;;;;;;;4.40;4.10;;;19.60;1.00;;;;;;2611683;54;20186;-75
2022/07/05 19:45:00;;;;;;;3.80;3.50;;;19.50;1.00;;;;;;2611352;54;20160;-76
2022/07/05 19:50:47;;;;;;;3.90;3.47;;;19.60;1.00;;;;;;2613601;39;20615;-76
2022/07/05 19:56:35;;;;;;;4.10;3.83;;;19.40;1.00;;;;;;2611309;54;20161;-76
2022/07/05 20:02:22;;;;;;;3.93;2.90;;;19.20;1.00;;;;;;2612109;54;20159;-76
2022/07/05 20:08:09;;;;;;;3.73;3.27;;;19.10;1.00;;;;;;2613528;54;20137;-76
2022/07/05 20:13:56;;;;;;;4.03;3.67;;;19.00;1.00;;;;;;2613871;54;20130;-76
2022/07/05 20:19:44;;;;;;;3.93;3.60;;;18.90;1.00;;;;;;2614662;54;20494;-75
2022/07/05 20:25:31;;;;;;;4.30;3.63;;;18.80;1.00;;;;;;2614043;54;20541;-77
2022/07/05 20:31:19;;;;;;;9.40;3.40;;;18.90;1.00;;;;;;2614915;54;20165;-78
2022/07/05 20:37:08;;;;;;;4.23;3.93;;;18.90;1.00;;;;;;2614990;54;20125;-77
2022/07/05 20:46:18;;;;;;;3.73;3.33;;;18.50;5.90;;;;;;2615000;54;20443;-77
2022/07/05 20:52:06;;;;;;;4.97;4.57;;;18.20;11.80;;;;;;2613278;54;20161;-77
2022/07/05 20:57:53;;;;;;;3.67;3.43;;;18.00;16.30;;;;;;2613672;54;20389;-76
2022/07/05 21:03:41;;;;;;;4.07;3.50;;;17.90;18.80;;;;;;2614998;54;20763;-77
2022/07/05 21:09:29;;;;;;;6.00;3.50;;;17.90;19.30;;;;;;2615106;39;20209;-77
2022/07/05 21:15:19;;;;;;;3.97;3.53;;;17.70;19.80;;;;;;2614333;54;20420;-77
2022/07/05 21:21:07;;;;;;;10.70;4.80;;;17.40;22.50;;;;;;2614744;54;20356;-76
2022/07/05 21:26:55;;;;;;;4.40;3.13;;;17.10;26.90;;;;;;2613150;54;20128;-76
2022/07/05 21:32:42;;;;;;;11.17;3.50;;;17.10;28.80;;;;;;2615254;54;20223;-77
2022/07/05 21:38:30;;;;;;;3.63;2.80;;;17.30;27.20;;;;;;2614325;54;20132;-77
2022/07/05 21:44:22;;;;;;;3.90;3.60;;;17.40;26.80;;;;;;2613284;47;20256;-75
2022/07/05 21:50:09;;;;;;;7.30;3.53;;;17.40;28.70;;;;;;2612824;54;20169;-76
2022/07/05 21:55:56;;;;;;;5.10;3.40;;;17.20;29.90;;;;;;2613141;54;20135;-76
2022/07/05 22:07:50;;;;;;;3.80;3.40;;;17.00;33.20;;;;;;2613554;54;20392;-77
2022/07/05 22:13:37;;;;;;;4.43;3.60;;;16.70;37.70;;;;;;2612899;54;20132;-75
2022/07/05 22:19:27;;;;;;;4.30;3.37;;;16.60;41.90;;;;;;2611910;54;20140;-76
2022/07/05 22:25:15;;;;;;;5.13;3.60;;;16.40;48.10;;;;;;2613949;54;20940;-76
2022/07/05 22:31:03;;;;;;;5.40;3.50;;;16.40;49.50;;;;;;2614153;54;20139;-76
2022/07/05 22:36:53;;;;;;;3.63;3.27;;;16.10;57.60;;;;;;2614677;54;20368;-77
2022/07/05 22:52:56;;;;;;;3.37;3.00;;;15.90;69.10;;;;;;2612743;54;20449;-76
2022/07/05 22:58:43;;;;;;;4.70;3.53;;;15.70;72.50;;;;;;2613414;54;20249;-76
2022/07/05 23:04:31;;;;;;;4.90;4.40;;;15.70;76.70;;;;;;2613247;54;20119;-76
2022/07/05 23:10:18;;;;;;;5.20;3.30;;;15.50;83.10;;;;;;2612446;54;20135;-76
2022/07/05 23:16:05;;;;;;;3.67;3.30;;;15.40;84.20;;;;;;2613962;54;20136;-76
2022/07/05 23:21:52;;;;;;;4.53;3.90;;;15.20;91.80;;;;;;2613662;54;20126;-76
2022/07/05 23:27:39;;;;;;;5.33;3.53;;;15.10;93.30;;;;;;2613885;54;20162;-76
2022/07/05 23:33:26;;;;;;;8.43;3.87;;;14.90;97.40;;;;;;2614393;54;20679;-77
2022/07/05 23:39:14;;;;;;;6.30;4.30;;;15.00;97.10;;;;;;2614977;54;20327;-75
2022/07/05 23:41:40;;;;;;;7.03;3.90;;;15.00;94.80;;;;;;2614024;54;20427;-76
2022/07/05 23:44:06;;;;;;;4.60;3.77;;;15.00;93.90;;;;;;2614635;39;20766;-77
2022/07/05 23:49:53;;;;;;;4.63;4.20;;;15.00;92.90;;;;;;2613988;54;20122;-75
2022/07/05 23:55:41;;;;;;;6.37;4.47;;;14.90;90.10;;;;;;2615092;54;20163;-76
